Hilmar, California
Current Conditions -  °F | °C
As of 3:15 AM on Sunday 23 Nov 2014 (Local Time) from KMER Reporting Station
Few Clouds Few Clouds  
Wind Chill: 50°   Ceiling: Unl
Heat Index: 50°   Visibility: 5mi
Dew Point: 50°   Wind: 18mph
Humidity: 100%   Direction: 10°N
Pressure: 30.19"   Gusts: 24mph
Location:  37.41°N, 120.85°W
Report Text: KMER 231115Z AUTO 01016G21KT 5SM FEW006 10/10 A3019 RMK AO1
Loading
Personal Weather Stations






























Interactive Weather Map New forecast layout! Learn more

10-Day Weather Forecast

Advertisements
Track Severe Weather on mobile